Time;durP1;ratioP1;P1;durP2;ratioP2;P2;SDS_P1;SDS_P2;PMS_P1;PMS_P2;Temp;Humidity;BMP_temperature;BMP_pressure;BME280_temperature;BME280_humidity;BME280_pressure;Samples;Min_cycle;Max_cycle;Signal;HPM_P1;HPM_P2
2023/12/27 00:00:59;;;;;;;15.05;8.25;;;8.10;99.90;;;;;;6338770;22;20003;-91
2023/12/27 00:03:25;;;;;;;18.02;7.75;;;8.10;99.90;;;;;;6339546;22;20005;-89
2023/12/27 00:05:51;;;;;;;23.55;8.32;;;8.00;99.90;;;;;;6339575;22;19999;-88
2023/12/27 00:08:18;;;;;;;19.38;8.50;;;8.00;99.90;;;;;;6338710;22;20023;-87
2023/12/27 00:10:44;;;;;;;16.58;7.95;;;8.00;99.90;;;;;;6338979;22;20379;-88
2023/12/27 00:13:10;;;;;;;14.13;7.85;;;8.00;99.90;;;;;;6339408;22;19995;-89
2023/12/27 00:15:36;;;;;;;12.88;6.68;;;7.90;99.90;;;;;;6338714;22;20071;-88
2023/12/27 00:18:02;;;;;;;19.88;7.88;;;8.00;99.90;;;;;;6338926;22;19999;-88
2023/12/27 00:20:30;;;;;;;18.55;7.20;;;8.00;99.90;;;;;;6358908;22;20007;-91
2023/12/27 00:23:01;;;;;;;12.30;6.53;;;8.00;99.90;;;;;;6343380;22;20021;-90
2023/12/27 00:25:27;;;;;;;21.55;7.28;;;8.00;99.90;;;;;;6338727;22;20013;-89
2023/12/27 00:27:54;;;;;;;17.35;7.20;;;8.00;99.90;;;;;;6339636;22;20077;-89
2023/12/27 00:30:23;;;;;;;11.65;7.07;;;8.40;99.90;;;;;;6339615;22;20007;-87
2023/12/27 00:32:51;;;;;;;21.02;8.18;;;8.00;99.90;;;;;;6339652;22;20048;-89
2023/12/27 00:35:17;;;;;;;11.27;8.02;;;8.70;99.90;;;;;;6340304;22;20015;-93
2023/12/27 00:37:44;;;;;;;19.17;9.25;;;7.90;99.90;;;;;;6312946;22;20015;-92
2023/12/27 00:40:11;;;;;;;18.30;8.00;;;7.90;99.90;;;;;;6341670;22;20394;-91
2023/12/27 00:42:36;;;;;;;12.82;8.05;;;7.90;99.90;;;;;;6340387;22;20003;-92
2023/12/27 00:45:03;;;;;;;21.60;8.55;;;7.90;99.90;;;;;;6339855;22;20044;-91
2023/12/27 00:47:29;;;;;;;21.55;8.20;;;7.80;99.90;;;;;;6340094;22;20781;-92
2023/12/27 00:49:57;;;;;;;18.17;7.10;;;7.80;99.90;;;;;;6339276;22;19995;-92
2023/12/27 00:52:33;;;;;;;17.42;8.20;;;7.80;99.90;;;;;;6341113;22;20006;-91
2023/12/27 00:54:59;;;;;;;15.90;7.95;;;7.80;99.90;;;;;;6356236;22;20048;-90
2023/12/27 00:57:25;;;;;;;15.63;7.68;;;7.70;99.90;;;;;;6358884;22;19994;-90
2023/12/27 00:59:52;;;;;;;11.85;7.32;;;7.70;99.90;;;;;;6359064;22;20300;-91
2023/12/27 01:02:17;;;;;;;18.75;7.70;;;7.70;99.90;;;;;;6340019;22;19999;-91
2023/12/27 01:04:43;;;;;;;22.33;8.02;;;7.70;99.90;;;;;;6339150;22;20003;-88
2023/12/27 01:07:08;;;;;;;15.55;7.53;;;7.70;99.90;;;;;;6339850;22;19998;-92
2023/12/27 01:09:38;;;;;;;11.77;7.53;;;7.70;99.90;;;;;;6338961;22;19999;-89
2023/12/27 01:12:04;;;;;;;13.47;7.20;;;7.70;99.90;;;;;;6338560;22;20029;-90
2023/12/27 01:14:29;;;;;;;23.35;8.00;;;7.70;99.90;;;;;;6337459;22;20007;-90
2023/12/27 01:16:55;;;;;;;18.42;7.18;;;7.80;99.90;;;;;;6337620;22;20018;-89
2023/12/27 01:19:20;;;;;;;20.77;8.00;;;7.80;99.90;;;;;;6339235;22;20086;-89
2023/12/27 01:21:46;;;;;;;16.67;8.23;;;7.80;99.90;;;;;;6345345;22;19995;-91
2023/12/27 01:24:11;;;;;;;16.27;8.07;;;7.80;99.90;;;;;;6343288;22;19995;-88
2023/12/27 01:26:37;;;;;;;15.50;7.38;;;7.80;99.90;;;;;;6338623;22;20419;-88
2023/12/27 01:29:03;;;;;;;20.02;7.30;;;7.80;99.90;;;;;;6339217;22;20045;-89
2023/12/27 01:31:28;;;;;;;16.65;8.57;;;7.80;99.90;;;;;;6338329;22;19995;-89
2023/12/27 01:33:56;;;;;;;16.42;7.40;;;7.80;99.90;;;;;;6338309;22;20003;-89
2023/12/27 01:36:23;;;;;;;14.35;7.25;;;7.80;99.90;;;;;;6338960;22;20041;-88
2023/12/27 01:38:50;;;;;;;19.67;7.57;;;7.70;99.90;;;;;;6338402;22;19995;-91
2023/12/27 01:41:16;;;;;;;18.17;7.70;;;7.70;99.90;;;;;;6359073;22;20014;-92
2023/12/27 01:43:41;;;;;;;19.80;8.52;;;7.70;99.90;;;;;;6341878;22;20003;-90
2023/12/27 01:46:08;;;;;;;14.55;7.03;;;7.70;99.90;;;;;;6338771;22;20052;-90
2023/12/27 01:48:36;;;;;;;15.63;7.45;;;7.70;99.90;;;;;;6339160;22;20021;-90
2023/12/27 01:51:05;;;;;;;20.17;7.55;;;7.60;99.90;;;;;;6338502;22;20052;-90
2023/12/27 01:53:32;;;;;;;14.43;7.07;;;7.70;99.90;;;;;;6338421;22;20026;-91
2023/12/27 01:56:01;;;;;;;15.05;7.90;;;7.60;99.90;;;;;;6336640;22;20104;-91
2023/12/27 01:58:30;;;;;;;13.00;7.53;;;7.60;99.90;;;;;;6338191;22;19998;-90
2023/12/27 02:00:56;;;;;;;20.38;7.43;;;7.50;99.90;;;;;;6337651;22;20006;-91
2023/12/27 02:03:23;;;;;;;14.55;7.13;;;7.50;99.90;;;;;;6337297;22;20081;-90
2023/12/27 02:05:56;;;;;;;21.45;7.55;;;7.50;99.90;;;;;;6338777;22;20029;-89
2023/12/27 02:08:23;;;;;;;18.70;8.07;;;7.50;99.90;;;;;;6338319;22;20002;-91
2023/12/27 02:10:48;;;;;;;16.25;7.55;;;7.60;99.90;;;;;;6338521;22;20003;-91
2023/12/27 02:13:19;;;;;;;22.50;8.23;;;7.50;99.90;;;;;;6338008;22;20135;-90
2023/12/27 02:15:46;;;;;;;23.13;7.75;;;7.50;99.90;;;;;;6338147;22;20017;-90
2023/12/27 02:18:14;;;;;;;19.10;7.93;;;7.50;99.90;;;;;;6337853;22;19999;-91
2023/12/27 02:20:41;;;;;;;15.10;8.10;;;7.50;99.90;;;;;;6338403;22;20009;-90
2023/12/27 02:23:11;;;;;;;18.05;7.30;;;7.50;99.90;;;;;;6338591;22;20003;-89
2023/12/27 02:25:37;;;;;;;20.33;7.57;;;7.50;99.90;;;;;;6337664;22;20026;-89
2023/12/27 02:28:02;;;;;;;21.55;8.38;;;7.50;99.90;;;;;;6338797;22;20079;-89
2023/12/27 02:30:31;;;;;;;16.95;7.78;;;7.50;99.90;;;;;;6337994;22;20388;-90
2023/12/27 02:32:58;;;;;;;20.80;8.25;;;7.50;99.90;;;;;;6338558;22;19999;-91
2023/12/27 02:35:24;;;;;;;16.02;8.52;;;7.50;99.90;;;;;;6338339;22;20127;-90
2023/12/27 02:37:50;;;;;;;21.77;8.00;;;7.50;99.90;;;;;;6337804;22;20052;-90
2023/12/27 02:40:27;;;;;;;18.55;7.22;;;7.50;99.90;;;;;;6337616;22;20003;-90
2023/12/27 02:42:56;;;;;;;18.73;8.05;;;7.50;99.90;;;;;;6336902;22;20403;-90
2023/12/27 02:45:22;;;;;;;18.00;8.55;;;7.50;99.90;;;;;;6338409;22;19999;-89
2023/12/27 02:47:48;;;;;;;20.00;9.32;;;7.50;99.90;;;;;;6339274;22;20077;-90
2023/12/27 02:50:14;;;;;;;18.30;8.45;;;7.50;99.90;;;;;;6340545;22;20022;-89
2023/12/27 02:52:43;;;;;;;16.90;8.75;;;7.50;99.90;;;;;;6340129;22;20002;-90
2023/12/27 02:55:10;;;;;;;23.92;9.20;;;7.80;99.90;;;;;;6340119;22;20009;-90
2023/12/27 02:57:36;;;;;;;21.15;7.70;;;7.50;99.90;;;;;;6339689;22;20045;-90
2023/12/27 03:00:03;;;;;;;26.15;9.52;;;7.50;99.90;;;;;;6346766;22;19983;-89
2023/12/27 03:02:32;;;;;;;21.58;8.70;;;7.50;99.90;;;;;;6354254;22;20394;-89
2023/12/27 03:05:00;;;;;;;19.35;8.73;;;7.80;99.90;;;;;;6340987;22;19999;-89
2023/12/27 03:07:27;;;;;;;17.42;8.43;;;7.50;99.90;;;;;;6339484;22;20002;-89
2023/12/27 03:09:56;;;;;;;20.52;8.60;;;7.50;99.90;;;;;;6339111;22;20025;-90
2023/12/27 03:12:23;;;;;;;22.23;8.63;;;7.50;99.90;;;;;;6344938;22;20006;-88
2023/12/27 03:14:50;;;;;;;25.23;8.77;;;7.50;99.90;;;;;;6338745;22;20011;-89
2023/12/27 03:17:16;;;;;;;21.17;8.65;;;7.60;99.90;;;;;;6338028;22;20044;-88
2023/12/27 03:19:42;;;;;;;19.00;8.73;;;7.50;99.90;;;;;;6337932;22;20061;-88
2023/12/27 03:22:09;;;;;;;15.85;8.35;;;7.50;99.90;;;;;;6339095;22;20003;-89
2023/12/27 03:24:34;;;;;;;19.48;8.45;;;7.60;99.90;;;;;;6338159;22;20003;-88
2023/12/27 03:27:01;;;;;;;17.83;9.07;;;7.60;99.90;;;;;;6338601;22;20018;-87
2023/12/27 03:29:27;;;;;;;12.43;7.60;;;7.50;99.90;;;;;;6338301;22;20002;-89
2023/12/27 03:31:58;;;;;;;19.30;7.97;;;7.60;99.90;;;;;;6337715;22;20063;-88
2023/12/27 03:34:24;;;;;;;19.00;8.18;;;7.50;99.90;;;;;;6339734;22;20010;-88
2023/12/27 03:36:49;;;;;;;16.67;7.70;;;7.50;99.90;;;;;;6337043;22;20018;-88
2023/12/27 03:39:15;;;;;;;11.98;7.38;;;7.50;99.90;;;;;;6338816;22;20009;-89
2023/12/27 03:41:44;;;;;;;12.38;7.00;;;7.50;99.90;;;;;;6339140;22;20090;-88
2023/12/27 03:44:10;;;;;;;14.50;7.63;;;7.50;99.90;;;;;;6339783;22;19995;-88
2023/12/27 03:46:37;;;;;;;21.05;9.00;;;7.40;99.90;;;;;;6337466;22;20296;-87
2023/12/27 03:49:03;;;;;;;24.17;8.63;;;7.40;99.90;;;;;;6338781;22;20013;-88
2023/12/27 03:51:31;;;;;;;19.77;7.85;;;7.40;99.90;;;;;;6339188;22;19995;-89
2023/12/27 03:53:57;;;;;;;24.10;8.00;;;7.40;99.90;;;;;;6336166;22;20094;-88
2023/12/27 03:56:25;;;;;;;22.00;8.25;;;7.40;99.90;;;;;;6338601;22;20081;-88
2023/12/27 03:58:51;;;;;;;21.20;8.68;;;7.40;99.90;;;;;;6337840;22;19999;-89
2023/12/27 04:01:22;;;;;;;22.45;7.65;;;7.40;99.90;;;;;;6338060;22;20003;-89
2023/12/27 04:03:49;;;;;;;21.88;8.93;;;7.40;99.90;;;;;;6338105;22;20003;-88
2023/12/27 04:06:19;;;;;;;16.63;7.97;;;7.30;99.90;;;;;;6339059;22;20065;-88
2023/12/27 04:08:47;;;;;;;20.35;8.27;;;7.30;99.90;;;;;;6339966;22;20002;-88
2023/12/27 04:11:18;;;;;;;17.02;8.23;;;7.30;99.90;;;;;;6347387;22;20085;-87
2023/12/27 04:13:44;;;;;;;19.23;8.02;;;7.30;99.90;;;;;;6346093;22;20006;-88
2023/12/27 04:16:09;;;;;;;23.48;8.10;;;7.30;99.90;;;;;;6343411;22;20347;-88
2023/12/27 04:18:36;;;;;;;16.23;7.80;;;7.30;99.90;;;;;;6339290;22;20013;-88
2023/12/27 04:21:02;;;;;;;23.67;8.73;;;7.30;99.90;;;;;;6350047;22;19998;-88
2023/12/27 04:23:32;;;;;;;34.42;9.48;;;7.10;99.90;;;;;;6349362;22;20063;-89
2023/12/27 04:25:58;;;;;;;;;;;7.40;99.90;;;;;;6339828;22;20007;-89
2023/12/27 04:28:24;;;;;;;14.45;7.75;;;7.30;99.90;;;;;;6338758;22;19921;-87
2023/12/27 04:30:50;;;;;;;24.77;8.07;;;7.40;99.90;;;;;;6337880;22;20014;-89
2023/12/27 04:33:17;;;;;;;26.67;8.65;;;7.40;99.90;;;;;;6338183;22;20003;-88
2023/12/27 04:35:43;;;;;;;24.20;8.82;;;7.40;99.90;;;;;;6338194;22;20002;-88
2023/12/27 04:38:13;;;;;;;20.40;7.35;;;7.40;99.90;;;;;;6338031;22;19998;-88
2023/12/27 04:40:46;;;;;;;16.23;8.00;;;7.40;99.90;;;;;;6336981;22;20067;-88
2023/12/27 04:43:13;;;;;;;19.48;7.93;;;7.50;99.90;;;;;;6337036;22;20002;-88
2023/12/27 04:45:39;;;;;;;23.15;8.25;;;7.80;99.90;;;;;;6337586;22;19999;-89
2023/12/27 04:48:06;;;;;;;26.67;8.45;;;7.50;99.90;;;;;;6338680;22;20065;-89
2023/12/27 04:50:33;;;;;;;23.50;8.23;;;7.40;99.90;;;;;;6338542;22;20005;-89
2023/12/27 04:53:01;;;;;;;19.13;7.90;;;7.40;99.90;;;;;;6338121;22;20002;-88
2023/12/27 04:55:26;;;;;;;15.68;7.43;;;7.40;99.90;;;;;;6338832;22;20430;-89
2023/12/27 04:57:52;;;;;;;16.55;7.53;;;7.40;99.90;;;;;;6337010;22;20014;-89
2023/12/27 05:00:18;;;;;;;26.40;8.13;;;7.50;99.90;;;;;;6338773;22;19995;-88
2023/12/27 05:02:43;;;;;;;28.75;7.68;;;7.50;99.90;;;;;;6343092;22;20009;-89
2023/12/27 05:05:10;;;;;;;21.92;8.18;;;7.40;99.90;;;;;;6338574;22;20030;-89
2023/12/27 05:07:36;;;;;;;15.05;7.20;;;7.50;99.90;;;;;;6337398;22;19995;-89
2023/12/27 05:10:02;;;;;;;13.38;6.30;;;7.50;99.90;;;;;;6338220;22;20074;-88
2023/12/27 05:12:31;;;;;;;19.60;7.70;;;7.40;99.90;;;;;;6310476;22;20026;-87
2023/12/27 05:14:56;;;;;;;23.75;7.40;;;7.40;99.90;;;;;;6337545;22;20423;-89
2023/12/27 05:17:23;;;;;;;14.15;7.03;;;7.40;99.90;;;;;;6337426;22;20040;-89
2023/12/27 05:19:52;;;;;;;12.57;6.28;;;7.40;99.90;;;;;;6338219;22;20030;-88
2023/12/27 05:22:20;;;;;;;20.38;7.85;;;7.40;99.90;;;;;;6338802;22;20002;-89
2023/12/27 05:24:47;;;;;;;22.05;7.13;;;7.40;99.90;;;;;;6338428;22;19999;-89
2023/12/27 05:27:12;;;;;;;17.83;7.22;;;7.40;99.90;;;;;;6341079;22;20007;-89
2023/12/27 05:29:38;;;;;;;20.77;6.68;;;7.40;99.90;;;;;;6337856;22;19999;-89
2023/12/27 05:32:04;;;;;;;23.67;6.88;;;7.40;99.90;;;;;;6336656;22;20096;-90
2023/12/27 05:34:31;;;;;;;15.02;6.32;;;7.40;99.90;;;;;;6339259;22;20396;-89
2023/12/27 05:37:02;;;;;;;19.27;6.22;;;7.30;99.90;;;;;;6338553;22;20007;-90
2023/12/27 05:39:38;;;;;;;16.88;6.32;;;7.40;99.90;;;;;;6338120;22;19995;-90
2023/12/27 05:42:04;;;;;;;20.27;6.47;;;7.40;99.90;;;;;;6355289;22;20006;-89
2023/12/27 05:44:30;;;;;;;18.25;5.95;;;7.30;99.90;;;;;;6344511;22;20015;-89
2023/12/27 05:46:57;;;;;;;18.65;6.45;;;7.30;99.90;;;;;;6339107;22;19999;-90
2023/12/27 05:49:24;;;;;;;19.05;5.95;;;7.30;99.90;;;;;;6338736;22;20083;-91
2023/12/27 05:51:51;;;;;;;18.25;7.00;;;7.30;99.90;;;;;;6339274;22;20010;-89
2023/12/27 05:54:20;;;;;;;16.23;6.38;;;7.30;99.90;;;;;;6339132;22;19998;-90
2023/12/27 05:56:46;;;;;;;17.83;6.18;;;7.30;99.90;;;;;;6337982;22;20018;-90
2023/12/27 05:59:15;;;;;;;12.77;5.57;;;7.30;99.90;;;;;;6339504;22;19998;-91
2023/12/27 06:01:48;;;;;;;16.38;5.90;;;7.30;99.90;;;;;;6337912;22;20007;-90
2023/12/27 06:04:17;;;;;;;22.15;7.53;;;7.40;99.90;;;;;;6339053;22;20030;-90
2023/12/27 06:06:46;;;;;;;32.42;7.68;;;7.40;99.90;;;;;;6338123;22;20418;-90
2023/12/27 06:09:20;;;;;;;13.93;5.45;;;7.40;99.90;;;;;;6337901;22;20410;-89
2023/12/27 06:11:47;;;;;;;23.95;6.90;;;7.30;99.90;;;;;;6338037;22;20010;-90
2023/12/27 06:14:13;;;;;;;21.75;6.95;;;7.30;99.90;;;;;;6337891;22;20450;-89
2023/12/27 06:16:40;;;;;;;16.92;7.05;;;7.30;99.90;;;;;;6338245;22;20461;-91
2023/12/27 06:19:12;;;;;;;20.80;6.85;;;7.30;99.90;;;;;;6338518;22;20446;-88
2023/12/27 06:21:43;;;;;;;17.75;7.07;;;7.80;99.90;;;;;;6338433;22;20403;-90
2023/12/27 06:24:10;;;;;;;;;;;7.30;99.90;;;;;;6341169;22;20007;-93
2023/12/27 06:26:56;;;;;;;24.33;6.35;;;7.40;99.90;;;;;;6340145;22;19903;-94
2023/12/27 06:29:23;;;;;;;22.88;7.32;;;7.40;99.90;;;;;;6339837;22;20011;-90
2023/12/27 06:32:00;;;;;;;24.13;6.32;;;7.40;99.90;;;;;;6340362;22;20003;-92
2023/12/27 06:34:26;;;;;;;15.80;5.85;;;7.40;99.90;;;;;;6340161;22;20006;-92
2023/12/27 06:36:54;;;;;;;26.58;7.68;;;7.40;99.90;;;;;;6339719;22;20007;-91
2023/12/27 06:39:21;;;;;;;19.15;6.30;;;7.40;99.90;;;;;;6340877;22;20003;-91
2023/12/27 06:41:48;;;;;;;12.88;5.75;;;7.40;99.90;;;;;;6339725;22;20007;-92
2023/12/27 06:44:29;;;;;;;24.55;6.47;;;7.40;99.90;;;;;;6340250;22;19999;-91
2023/12/27 06:46:56;;;;;;;16.73;6.55;;;7.50;99.90;;;;;;6339837;22;20033;-91
2023/12/27 06:49:23;;;;;;;20.73;6.68;;;7.40;99.90;;;;;;6339817;22;20085;-90
2023/12/27 06:51:49;;;;;;;17.00;6.40;;;7.40;99.90;;;;;;6355662;22;20003;-91
2023/12/27 06:54:15;;;;;;;14.82;6.22;;;7.40;99.90;;;;;;6343948;22;20033;-92
2023/12/27 06:56:47;;;;;;;14.77;6.45;;;7.40;99.90;;;;;;6341493;22;20010;-91
2023/12/27 06:59:14;;;;;;;16.00;6.57;;;7.40;99.90;;;;;;6339988;22;20059;-90
2023/12/27 07:01:40;;;;;;;16.45;6.75;;;7.40;99.90;;;;;;6344482;22;20042;-90
2023/12/27 07:04:22;;;;;;;22.58;7.43;;;7.40;99.90;;;;;;6356881;22;20010;-92
2023/12/27 07:06:48;;;;;;;15.23;6.95;;;7.40;99.90;;;;;;6343197;22;19995;-93
2023/12/27 07:09:17;;;;;;;17.80;6.93;;;7.40;99.90;;;;;;6340724;22;20009;-91
2023/12/27 07:11:45;;;;;;;12.85;6.43;;;7.30;99.90;;;;;;6339935;22;20010;-90
2023/12/27 07:14:10;;;;;;;20.10;7.57;;;7.40;99.90;;;;;;6341382;22;20007;-90
2023/12/27 07:16:37;;;;;;;18.90;7.65;;;7.40;99.90;;;;;;6343795;22;20021;-89
2023/12/27 07:19:04;;;;;;;18.58;7.80;;;7.30;99.90;;;;;;6339609;22;20033;-90
2023/12/27 07:21:30;;;;;;;12.68;6.78;;;7.40;99.90;;;;;;6339674;22;20467;-89
2023/12/27 07:23:55;;;;;;;13.13;6.10;;;7.40;99.90;;;;;;6335970;22;20003;-87
2023/12/27 07:26:22;;;;;;;9.50;6.63;;;7.40;99.90;;;;;;6341488;22;20003;-89
2023/12/27 07:28:51;;;;;;;13.27;7.28;;;7.40;99.90;;;;;;6337607;22;20022;-89
2023/12/27 07:31:18;;;;;;;12.02;6.45;;;7.40;99.90;;;;;;6348527;22;20052;-88
2023/12/27 07:33:44;;;;;;;12.45;6.47;;;8.20;99.90;;;;;;6346936;22;19999;-89
2023/12/27 07:36:11;;;;;;;9.07;6.05;;;7.50;99.90;;;;;;6343562;22;20127;-89
2023/12/27 07:38:38;;;;;;;11.77;6.43;;;7.50;99.90;;;;;;6337965;22;20081;-88
2023/12/27 07:41:05;;;;;;;7.72;5.38;;;7.50;99.90;;;;;;6339488;22;20107;-90
2023/12/27 07:43:31;;;;;;;11.05;6.35;;;7.50;99.90;;;;;;6338133;22;20003;-88
2023/12/27 07:45:58;;;;;;;6.20;5.68;;;7.50;99.90;;;;;;6338107;22;20003;-87
2023/12/27 07:48:24;;;;;;;7.45;6.63;;;7.50;99.90;;;;;;6339153;22;19995;-91
2023/12/27 07:50:55;;;;;;;7.47;5.63;;;7.50;99.90;;;;;;6339112;22;20002;-89
2023/12/27 07:53:23;;;;;;;7.07;5.70;;;7.50;99.90;;;;;;6338909;22;20082;-89
2023/12/27 07:55:51;;;;;;;6.43;5.82;;;7.50;99.90;;;;;;6338048;22;20055;-91
2023/12/27 07:58:17;;;;;;;8.32;6.15;;;7.60;99.90;;;;;;6338981;22;19990;-89
2023/12/27 08:00:43;;;;;;;5.95;5.35;;;7.50;99.90;;;;;;6338305;22;20060;-87
2023/12/27 08:03:11;;;;;;;5.85;5.25;;;7.60;99.90;;;;;;6338713;22;19994;-89
2023/12/27 08:05:36;;;;;;;6.57;5.82;;;7.60;99.90;;;;;;6335932;22;20003;-85
2023/12/27 08:08:03;;;;;;;5.72;5.15;;;7.60;99.90;;;;;;6336110;22;20067;-86
2023/12/27 08:10:30;;;;;;;6.60;5.80;;;7.60;99.90;;;;;;6335885;22;20335;-86
2023/12/27 08:13:12;;;;;;;7.00;5.50;;;7.70;99.90;;;;;;6337669;22;20055;-91
2023/12/27 08:15:40;;;;;;;7.53;6.28;;;7.70;99.90;;;;;;6337922;22;20006;-88
2023/12/27 08:18:20;;;;;;;8.65;5.43;;;7.80;99.90;;;;;;6336141;22;20019;-88
2023/12/27 08:20:47;;;;;;;7.28;5.55;;;8.20;99.90;;;;;;6335665;22;20743;-86
2023/12/27 08:23:18;;;;;;;6.65;6.05;;;7.70;99.90;;;;;;6342487;22;20006;-88
2023/12/27 08:25:51;;;;;;;6.15;5.65;;;7.70;99.90;;;;;;6340806;22;20003;-91
2023/12/27 08:28:17;;;;;;;7.00;6.40;;;8.10;99.90;;;;;;6337351;22;20011;-86
2023/12/27 08:30:44;;;;;;;6.60;6.00;;;7.80;99.90;;;;;;6338020;22;20439;-86
2023/12/27 08:33:09;;;;;;;6.95;6.43;;;7.80;99.90;;;;;;6336751;22;19999;-88
2023/12/27 08:35:37;;;;;;;7.18;6.45;;;7.90;99.90;;;;;;6334730;22;20042;-90
2023/12/27 08:38:05;;;;;;;7.65;6.95;;;8.50;99.90;;;;;;6337765;22;20003;-90
2023/12/27 08:40:33;;;;;;;6.78;6.10;;;7.20;99.90;;;;;;6342160;22;20025;-88
2023/12/27 08:42:58;;;;;;;7.38;6.75;;;7.80;99.90;;;;;;6335724;22;20438;-85
2023/12/27 08:45:24;;;;;;;8.75;7.35;;;7.80;99.90;;;;;;6335659;22;19999;-85
2023/12/27 08:47:49;;;;;;;7.70;7.10;;;8.60;99.90;;;;;;6336475;22;20435;-85
2023/12/27 08:50:15;;;;;;;7.60;6.93;;;8.00;99.90;;;;;;6335405;22;19999;-84
2023/12/27 08:56:48;;;;;;;9.05;8.23;;;8.00;99.90;;;;;;6187173;23;20051;-86
2023/12/27 08:59:14;;;;;;;8.70;7.97;;;9.50;99.90;;;;;;6210142;23;20361;-84
2023/12/27 09:01:39;;;;;;;10.65;8.63;;;9.10;99.90;;;;;;6306117;22;20022;-85
2023/12/27 09:04:06;;;;;;;8.43;7.72;;;8.10;99.90;;;;;;6334750;22;20443;-84
2023/12/27 09:06:32;;;;;;;8.63;7.82;;;8.20;99.90;;;;;;6336203;22;20017;-85
2023/12/27 09:08:57;;;;;;;8.98;8.27;;;8.20;99.90;;;;;;6334873;22;20036;-84
2023/12/27 09:11:24;;;;;;;10.05;9.05;;;8.20;99.90;;;;;;6335206;22;20043;-84
2023/12/27 09:13:49;;;;;;;8.77;8.00;;;8.20;99.90;;;;;;6335205;22;19999;-84
2023/12/27 09:16:15;;;;;;;12.77;9.88;;;8.30;99.90;;;;;;6334195;22;20022;-84
2023/12/27 09:18:41;;;;;;;11.18;9.63;;;8.30;99.90;;;;;;6335239;22;20093;-83
2023/12/27 09:21:06;;;;;;;11.20;10.10;;;8.30;99.90;;;;;;6336923;22;20525;-85
2023/12/27 09:23:32;;;;;;;12.98;9.95;;;8.40;99.90;;;;;;6336471;22;20002;-86
2023/12/27 09:25:58;;;;;;;12.25;9.35;;;8.40;99.90;;;;;;6337851;22;20316;-87
2023/12/27 09:28:27;;;;;;;17.30;9.77;;;8.50;99.90;;;;;;6336868;22;19995;-87
2023/12/27 09:30:53;;;;;;;11.30;10.18;;;9.30;99.90;;;;;;6337520;22;20002;-86
2023/12/27 09:33:19;;;;;;;11.95;10.75;;;8.50;99.90;;;;;;6336921;22;20310;-87
2023/12/27 09:35:45;;;;;;;11.02;9.90;;;8.50;99.90;;;;;;6335312;22;20042;-88
2023/12/27 09:38:12;;;;;;;11.00;9.95;;;9.30;99.90;;;;;;6336026;22;20081;-87
2023/12/27 09:40:47;;;;;;;11.35;9.82;;;9.50;99.90;;;;;;6337889;22;20007;-89
2023/12/27 09:43:13;;;;;;;10.43;9.02;;;7.80;99.90;;;;;;6339547;22;20003;-84
2023/12/27 09:45:41;;;;;;;15.38;9.23;;;9.40;99.90;;;;;;6337692;22;19999;-84
2023/12/27 09:48:20;;;;;;;10.43;9.40;;;8.70;99.90;;;;;;6334578;22;20007;-83
2023/12/27 09:50:47;;;;;;;11.00;8.68;;;9.60;99.90;;;;;;6334139;22;20022;-83
2023/12/27 09:53:14;;;;;;;9.70;8.80;;;8.70;99.90;;;;;;6333964;22;20034;-85
2023/12/27 09:55:41;;;;;;;10.45;9.38;;;8.70;99.90;;;;;;6334000;22;20003;-85
2023/12/27 09:58:15;;;;;;;10.63;8.55;;;8.70;99.90;;;;;;6337374;22;20090;-86
2023/12/27 10:00:49;;;;;;;9.95;8.43;;;8.70;99.90;;;;;;6335611;22;20077;-87
2023/12/27 10:03:20;;;;;;;10.23;9.18;;;8.70;99.90;;;;;;6335724;22;20490;-85
2023/12/27 10:06:07;;;;;;;9.77;8.18;;;8.80;99.90;;;;;;6334728;22;20009;-84
2023/12/27 10:08:43;;;;;;;11.70;8.38;;;8.80;99.90;;;;;;6334767;22;19995;-84
2023/12/27 10:11:19;;;;;;;8.13;7.32;;;8.80;99.90;;;;;;6335861;22;20020;-84
2023/12/27 10:13:47;;;;;;;8.63;7.80;;;8.90;99.90;;;;;;6335184;22;19994;-84
2023/12/27 10:16:13;;;;;;;7.45;6.75;;;8.90;99.90;;;;;;6336476;22;20517;-87
2023/12/27 10:18:39;;;;;;;7.85;7.05;;;9.70;99.90;;;;;;6335728;22;20003;-83
2023/12/27 10:21:05;;;;;;;8.02;6.68;;;8.90;99.90;;;;;;6335471;22;20117;-85
2023/12/27 10:23:34;;;;;;;7.75;6.82;;;8.90;99.90;;;;;;6335309;22;20364;-85
2023/12/27 10:25:59;;;;;;;9.70;6.65;;;8.90;99.90;;;;;;6336407;22;20457;-85
2023/12/27 10:28:44;;;;;;;10.15;7.28;;;9.00;99.90;;;;;;6337324;22;20022;-89
2023/12/27 10:31:11;;;;;;;12.15;6.43;;;9.00;99.90;;;;;;6337037;22;20007;-86
2023/12/27 10:34:02;;;;;;;7.28;5.88;;;10.30;99.90;;;;;;6334582;22;20007;-85
2023/12/27 10:36:42;;;;;;;7.32;5.40;;;8.70;99.90;;;;;;6335653;22;20118;-86
2023/12/27 10:39:32;;;;;;;5.80;5.20;;;9.80;99.90;;;;;;6335883;22;20128;-84
2023/12/27 10:42:17;;;;;;;7.35;5.07;;;9.10;99.90;;;;;;6335689;22;20245;-91
2023/12/27 10:44:46;;;;;;;5.97;4.68;;;9.80;99.90;;;;;;6338591;22;20007;-84
2023/12/27 10:47:34;;;;;;;5.35;4.80;;;10.10;99.90;;;;;;6342129;22;20010;-84
2023/12/27 10:50:24;;;;;;;8.77;5.00;;;9.00;99.90;;;;;;6333432;22;20438;-86
2023/12/27 10:53:06;;;;;;;5.15;4.57;;;10.60;99.90;;;;;;6338740;22;20078;-85
2023/12/27 10:55:34;;;;;;;6.53;4.85;;;10.50;99.90;;;;;;6335478;22;20011;-86
2023/12/27 10:58:20;;;;;;;4.93;4.53;;;9.30;99.90;;;;;;6336012;22;20128;-89
2023/12/27 11:00:47;;;;;;;6.00;4.80;;;9.40;99.90;;;;;;6333121;22;20689;-85
2023/12/27 11:03:34;;;;;;;10.30;4.32;;;10.20;99.90;;;;;;6334985;22;20026;-84
2023/12/27 11:06:19;;;;;;;5.10;3.95;;;10.30;99.90;;;;;;6352679;22;20003;-84
2023/12/27 11:09:09;;;;;;;6.35;4.47;;;9.80;99.90;;;;;;6338715;22;20314;-86
2023/12/27 11:11:37;;;;;;;9.20;3.92;;;9.30;99.90;;;;;;6336756;22;20002;-87
2023/12/27 11:14:24;;;;;;;4.93;4.43;;;10.40;99.90;;;;;;6336680;22;20006;-86
2023/12/27 11:17:12;;;;;;;10.55;4.65;;;9.50;99.90;;;;;;6320812;22;20458;-89
2023/12/27 11:20:11;;;;;;;6.20;3.58;;;9.60;99.90;;;;;;6341637;22;20019;-87
2023/12/27 11:23:03;;;;;;;7.45;3.92;;;9.30;99.90;;;;;;6213988;23;20332;-89
2023/12/27 11:25:47;;;;;;;7.60;3.42;;;9.60;99.90;;;;;;6213377;23;20005;-91
2023/12/27 11:28:13;;;;;;;4.28;3.58;;;9.60;99.90;;;;;;6225443;23;20476;-88
2023/12/27 11:30:39;;;;;;;6.13;3.80;;;9.20;99.90;;;;;;6243672;23;20011;-90
2023/12/27 11:33:05;;;;;;;4.93;3.53;;;10.10;99.90;;;;;;6268717;22;20002;-89
2023/12/27 11:36:03;;;;;;;4.57;3.38;;;9.90;99.90;;;;;;6338741;22;20018;-92
2023/12/27 11:38:48;;;;;;;3.75;3.17;;;9.70;99.90;;;;;;6338355;22;20046;-89
2023/12/27 11:41:14;;;;;;;5.68;3.30;;;10.00;99.90;;;;;;6339781;22;20009;-90
2023/12/27 11:46:50;;;;;;;8.88;3.50;;;9.70;99.90;;;;;;6339122;22;20042;-92
2023/12/27 11:52:59;;;;;;;3.63;3.28;;;9.70;99.90;;;;;;6341775;22;20060;-89
2023/12/27 11:55:33;;;;;;;10.20;4.18;;;9.70;99.90;;;;;;6339434;22;19998;-89
2023/12/27 11:58:51;;;;;;;6.47;3.85;;;10.80;99.90;;;;;;6325963;22;20380;-85
2023/12/27 12:01:41;;;;;;;4.60;4.07;;;9.00;99.90;;;;;;6340463;22;20056;-90
2023/12/27 12:04:37;;;;;;;5.13;3.40;;;9.70;99.90;;;;;;6341108;22;20423;-92
2023/12/27 12:07:25;;;;;;;5.93;3.63;;;9.20;99.90;;;;;;6340301;22;19998;-90
2023/12/27 12:09:59;;;;;;;7.13;3.40;;;9.80;99.90;;;;;;6340658;22;20002;-90
2023/12/27 12:12:49;;;;;;;5.32;3.83;;;10.00;99.90;;;;;;6340365;22;20074;-91
2023/12/27 12:15:34;;;;;;;8.02;4.22;;;9.80;99.90;;;;;;6340487;22;20586;-90
2023/12/27 12:18:02;;;;;;;7.18;3.95;;;9.80;99.90;;;;;;6346253;22;20036;-89
2023/12/27 12:20:44;;;;;;;5.85;4.05;;;9.80;99.90;;;;;;6339607;22;20431;-90
2023/12/27 12:23:34;;;;;;;7.78;3.85;;;10.20;99.90;;;;;;6340605;22;20006;-92
2023/12/27 12:26:08;;;;;;;6.15;4.40;;;9.90;99.90;;;;;;6356222;22;20010;-91
2023/12/27 12:29:00;;;;;;;5.93;4.18;;;10.70;99.90;;;;;;6342061;22;19999;-91
2023/12/27 12:34:40;;;;;;;8.05;4.30;;;9.60;99.90;;;;;;6340137;22;20010;-91
2023/12/27 12:37:47;;;;;;;7.53;3.67;;;9.90;99.90;;;;;;6339380;22;20025;-92
2023/12/27 12:40:27;;;;;;;6.18;4.45;;;10.00;99.90;;;;;;6340114;22;20014;-91
2023/12/27 12:43:17;;;;;;;6.72;4.47;;;10.70;99.90;;;;;;6340383;22;20302;-91
2023/12/27 12:49:05;;;;;;;7.72;4.22;;;9.90;99.90;;;;;;6340862;22;20009;-90
2023/12/27 12:51:58;;;;;;;8.23;4.22;;;9.90;99.90;;;;;;6341134;22;20013;-92
2023/12/27 12:58:06;;;;;;;6.60;4.43;;;10.00;99.90;;;;;;6340619;22;20021;-90
2023/12/27 13:00:39;;;;;;;9.73;4.90;;;10.00;99.90;;;;;;6341184;22;20011;-91
2023/12/27 13:03:15;;;;;;;9.18;4.28;;;10.70;99.90;;;;;;6340531;22;20078;-91
2023/12/27 13:06:07;;;;;;;7.70;4.70;;;10.50;99.90;;;;;;6340751;22;20021;-90
2023/12/27 13:09:03;;;;;;;8.43;4.63;;;10.00;99.90;;;;;;6339975;22;20003;-90
2023/12/27 13:11:50;;;;;;;6.80;5.00;;;9.20;99.90;;;;;;6341236;22;19995;-90
2023/12/27 13:14:40;;;;;;;9.13;4.72;;;9.90;99.90;;;;;;6340948;22;20002;-89
2023/12/27 13:17:12;;;;;;;9.57;4.20;;;10.10;99.90;;;;;;6340117;22;20140;-90
2023/12/27 13:19:58;;;;;;;6.90;4.22;;;10.70;99.90;;;;;;6340498;22;20010;-90
2023/12/27 13:22:42;;;;;;;13.25;5.50;;;9.40;99.90;;;;;;6339124;22;20023;-90
2023/12/27 13:25:10;;;;;;;5.60;4.80;;;10.80;99.90;;;;;;6339833;22;20038;-91
2023/12/27 13:31:21;;;;;;;9.25;5.18;;;10.00;99.90;;;;;;6339776;22;20052;-90